Time;durP1;ratioP1;P1;durP2;ratioP2;P2;SDS_P1;SDS_P2;PMS_P1;PMS_P2;Temp;Humidity;BMP_temperature;BMP_pressure;BME280_temperature;BME280_humidity;BME280_pressure;Samples;Min_cycle;Max_cycle;Signal;HPM_P1;HPM_P2
2021/01/26 00:01:18;;;;;;;46.38;24.92;;;0.20;99.90;;;;;;5070560;28;20048;-67
2021/01/26 00:03:45;;;;;;;48.60;26.17;;;0.20;99.90;;;;;;5063401;28;20117;-67
2021/01/26 00:06:12;;;;;;;51.60;26.98;;;0.20;99.90;;;;;;5069321;28;20485;-67
2021/01/26 00:08:38;;;;;;;47.28;25.67;;;0.20;99.90;;;;;;5070713;28;20033;-67
2021/01/26 00:11:05;;;;;;;47.03;25.90;;;0.10;99.90;;;;;;5070527;28;20045;-68
2021/01/26 00:13:33;;;;;;;49.80;26.30;;;0.10;99.90;;;;;;5071744;28;20071;-68
2021/01/26 00:16:00;;;;;;;49.15;25.45;;;0.10;99.90;;;;;;5071103;28;20105;-66
2021/01/26 00:18:28;;;;;;;44.38;24.08;;;0.10;99.90;;;;;;5071457;28;20048;-67
2021/01/26 00:20:54;;;;;;;42.13;23.17;;;0.00;99.90;;;;;;5071813;28;20426;-67
2021/01/26 00:23:21;;;;;;;44.95;24.15;;;0.10;99.90;;;;;;5068230;28;20048;-66
2021/01/26 00:25:48;;;;;;;39.97;23.02;;;0.10;99.90;;;;;;5071433;28;20044;-65
2021/01/26 00:28:15;;;;;;;37.95;21.33;;;0.00;99.90;;;;;;5056849;28;20049;-65
2021/01/26 00:30:43;;;;;;;40.85;21.05;;;0.10;99.90;;;;;;5070786;28;20047;-67
2021/01/26 00:33:19;;;;;;;37.28;21.98;;;0.10;99.90;;;;;;5069600;28;20566;-66
2021/01/26 00:35:46;;;;;;;34.53;20.65;;;0.00;99.90;;;;;;5072126;28;20136;-67
2021/01/26 00:38:13;;;;;;;32.97;19.48;;;0.00;99.90;;;;;;5071035;28;20138;-67
2021/01/26 00:40:39;;;;;;;32.58;19.23;;;0.00;99.90;;;;;;5070009;28;20487;-66
2021/01/26 00:43:09;;;;;;;34.67;20.63;;;0.00;99.90;;;;;;5069243;28;20490;-65
2021/01/26 00:45:35;;;;;;;33.17;19.25;;;0.00;99.90;;;;;;5069528;28;20052;-66
2021/01/26 00:48:03;;;;;;;30.77;18.80;;;0.00;99.90;;;;;;5069962;28;20044;-66
2021/01/26 00:50:30;;;;;;;32.40;18.27;;;0.00;99.90;;;;;;5069226;28;20063;-66
2021/01/26 00:52:56;;;;;;;33.28;18.25;;;0.00;99.90;;;;;;5071012;28;20487;-66
2021/01/26 00:55:24;;;;;;;29.98;18.02;;;0.00;99.90;;;;;;5071464;28;20491;-66
2021/01/26 00:57:51;;;;;;;33.00;17.77;;;-0.10;99.90;;;;;;5059884;28;20076;-66
2021/01/26 01:00:23;;;;;;;26.45;16.50;;;0.00;99.90;;;;;;5068931;28;20048;-66
2021/01/26 01:02:49;;;;;;;31.40;17.67;;;0.00;99.90;;;;;;5069429;28;20041;-66
2021/01/26 01:05:17;;;;;;;29.90;16.52;;;-0.10;99.90;;;;;;5064245;28;20417;-66
2021/01/26 01:07:44;;;;;;;30.45;17.42;;;-0.10;99.90;;;;;;5069886;28;20441;-65
2021/01/26 01:10:14;;;;;;;28.92;17.58;;;0.00;99.90;;;;;;5069316;28;20056;-67
2021/01/26 01:12:40;;;;;;;29.00;14.95;;;0.00;99.90;;;;;;5071063;28;20051;-67
2021/01/26 01:15:07;;;;;;;26.40;16.42;;;0.00;99.90;;;;;;5070778;28;20051;-67
2021/01/26 01:17:34;;;;;;;26.98;15.90;;;-0.10;99.90;;;;;;5062110;28;20040;-67
2021/01/26 01:20:03;;;;;;;26.08;15.45;;;-0.10;99.90;;;;;;5070157;28;20056;-67
2021/01/26 01:22:30;;;;;;;26.98;14.35;;;-0.10;99.90;;;;;;5068654;28;20062;-66
2021/01/26 01:24:56;;;;;;;22.58;13.88;;;-0.10;99.90;;;;;;5070156;28;20059;-66
2021/01/26 01:27:23;;;;;;;25.98;13.88;;;-0.10;99.90;;;;;;5055261;28;20044;-67
2021/01/26 01:29:49;;;;;;;25.17;14.45;;;0.00;99.90;;;;;;5071275;28;20509;-66
2021/01/26 01:32:16;;;;;;;22.60;13.65;;;-0.10;99.90;;;;;;5069515;28;20048;-66
2021/01/26 01:34:42;;;;;;;21.00;12.88;;;-0.10;99.90;;;;;;5062204;28;20403;-66
2021/01/26 01:37:09;;;;;;;22.17;13.52;;;-0.10;99.90;;;;;;5065893;28;20517;-66
2021/01/26 01:39:36;;;;;;;21.25;12.85;;;-0.10;99.90;;;;;;5065344;28;20483;-66
2021/01/26 01:42:10;;;;;;;19.88;11.82;;;-0.20;99.90;;;;;;5064363;28;20048;-67
2021/01/26 01:44:37;;;;;;;19.08;11.27;;;-0.20;99.90;;;;;;5069722;28;20048;-66
2021/01/26 01:47:07;;;;;;;18.58;11.35;;;-0.30;99.90;;;;;;5069947;28;20053;-66
2021/01/26 01:49:41;;;;;;;16.98;11.20;;;-0.40;99.90;;;;;;5066369;28;20044;-66
2021/01/26 01:52:14;;;;;;;17.55;10.70;;;-0.40;99.90;;;;;;5058926;28;20052;-66
2021/01/26 01:54:46;;;;;;;18.55;11.18;;;-0.40;99.90;;;;;;5069001;28;20059;-66
2021/01/26 01:57:26;;;;;;;17.38;11.65;;;-0.40;99.90;;;;;;5068929;28;20055;-66
2021/01/26 01:59:57;;;;;;;20.17;11.32;;;-0.30;99.90;;;;;;5068962;28;20044;-66
2021/01/26 02:02:27;;;;;;;17.67;10.75;;;-0.30;99.90;;;;;;5067804;28;20170;-66
2021/01/26 02:04:57;;;;;;;18.13;10.57;;;-0.30;99.90;;;;;;5069825;28;20051;-66
2021/01/26 02:07:24;;;;;;;17.35;10.40;;;-0.30;99.90;;;;;;5066424;28;20045;-66
2021/01/26 02:09:51;;;;;;;16.00;10.40;;;-0.30;99.90;;;;;;5069719;28;20048;-66
2021/01/26 02:12:17;;;;;;;14.30;9.57;;;-0.30;99.90;;;;;;5069574;28;20044;-66
2021/01/26 02:14:50;;;;;;;13.63;8.75;;;-0.30;99.90;;;;;;5070422;28;20406;-66
2021/01/26 02:17:41;;;;;;;14.48;8.80;;;-0.20;99.90;;;;;;5069211;28;20498;-66
2021/01/26 02:20:48;;;;;;;14.48;9.35;;;-0.20;99.90;;;;;;5070369;28;20078;-66
2021/01/26 02:24:03;;;;;;;15.25;10.02;;;-0.20;99.90;;;;;;5035440;28;20057;-67
2021/01/26 02:26:47;;;;;;;20.35;11.27;;;-0.30;99.90;;;;;;5027179;28;20056;-66
2021/01/26 02:29:47;;;;;;;16.05;9.85;;;-0.30;99.90;;;;;;5028883;28;20053;-67
2021/01/26 02:32:45;;;;;;;16.23;10.55;;;-0.30;99.90;;;;;;5045163;28;20049;-67
2021/01/26 02:35:55;;;;;;;16.25;10.38;;;-0.40;99.90;;;;;;5046261;28;20045;-66
2021/01/26 02:38:45;;;;;;;16.08;10.15;;;-0.40;99.90;;;;;;5029547;28;20439;-66
2021/01/26 02:41:38;;;;;;;18.33;11.30;;;-0.40;99.90;;;;;;5045971;28;20045;-67
2021/01/26 02:44:27;;;;;;;19.60;11.23;;;-0.50;99.90;;;;;;5024689;28;20050;-67
2021/01/26 02:47:14;;;;;;;16.02;10.50;;;-0.50;99.90;;;;;;5041286;28;20045;-66
2021/01/26 02:49:51;;;;;;;18.25;10.88;;;-0.50;99.90;;;;;;5044720;28;20136;-66
2021/01/26 02:52:52;;;;;;;15.95;9.85;;;-0.60;99.90;;;;;;5046880;28;20041;-66
2021/01/26 02:55:28;;;;;;;16.33;10.05;;;-0.60;99.90;;;;;;5047351;28;20059;-66
2021/01/26 02:58:29;;;;;;;17.35;10.23;;;-0.60;99.90;;;;;;5063583;28;20052;-66
2021/01/26 03:00:58;;;;;;;17.52;10.43;;;-0.70;99.90;;;;;;5065955;28;20090;-67
2021/01/26 03:03:35;;;;;;;16.05;10.45;;;-0.70;99.90;;;;;;5066152;28;20052;-67
2021/01/26 03:06:17;;;;;;;19.55;11.88;;;-0.80;99.90;;;;;;5065142;28;20052;-67
2021/01/26 03:08:50;;;;;;;19.83;11.48;;;-0.80;99.90;;;;;;5066087;28;20401;-66
2021/01/26 03:11:42;;;;;;;22.77;13.63;;;-0.90;99.90;;;;;;5066688;28;20044;-66
2021/01/26 03:14:32;;;;;;;20.17;12.73;;;-0.90;99.90;;;;;;5055929;28;20079;-66
2021/01/26 03:17:33;;;;;;;21.70;12.48;;;-0.90;99.90;;;;;;5068274;28;20048;-66
2021/01/26 03:20:09;;;;;;;24.10;14.00;;;-1.00;99.90;;;;;;5069814;28;20055;-66
2021/01/26 03:22:38;;;;;;;25.73;14.45;;;-1.00;99.90;;;;;;5068290;28;20044;-66
2021/01/26 03:25:07;;;;;;;23.65;14.30;;;-1.10;99.90;;;;;;5070041;28;20059;-66
2021/01/26 03:27:39;;;;;;;28.38;16.75;;;-1.10;99.90;;;;;;5068897;28;20047;-66
2021/01/26 03:30:09;;;;;;;28.33;15.77;;;-1.10;99.90;;;;;;5070235;28;20049;-66
2021/01/26 03:32:42;;;;;;;25.88;15.07;;;-1.10;99.90;;;;;;5069196;28;20071;-66
2021/01/26 03:35:09;;;;;;;29.75;16.67;;;-1.10;99.90;;;;;;5070259;28;20569;-66
2021/01/26 03:37:38;;;;;;;29.67;17.15;;;-1.10;99.90;;;;;;5062774;28;20056;-67
2021/01/26 03:40:06;;;;;;;30.08;17.77;;;-1.10;99.90;;;;;;5072501;28;20375;-66
2021/01/26 03:42:35;;;;;;;29.88;18.17;;;-1.10;99.90;;;;;;5059702;28;20509;-66
2021/01/26 03:45:04;;;;;;;30.85;17.65;;;-1.10;99.90;;;;;;5072492;28;20075;-66
2021/01/26 03:47:39;;;;;;;34.13;18.27;;;-1.10;99.90;;;;;;5071672;28;20048;-66
2021/01/26 03:50:30;;;;;;;28.85;18.17;;;-1.10;99.90;;;;;;5071214;28;20123;-67
2021/01/26 03:53:28;;;;;;;33.80;19.83;;;-1.00;99.90;;;;;;5080175;28;20047;-66
2021/01/26 03:56:12;;;;;;;33.30;18.38;;;-1.00;99.90;;;;;;5068318;28;20427;-66
2021/01/26 03:58:59;;;;;;;31.65;18.45;;;-1.00;99.90;;;;;;5069172;28;20086;-65
2021/01/26 04:01:39;;;;;;;34.17;17.98;;;-0.90;99.90;;;;;;5071923;28;20054;-66
2021/01/26 04:04:24;;;;;;;34.75;19.15;;;-0.90;99.90;;;;;;5072954;28;20048;-66
2021/01/26 04:07:02;;;;;;;31.77;18.45;;;-0.90;99.90;;;;;;5068841;28;20823;-65
2021/01/26 04:09:35;;;;;;;30.27;18.20;;;-0.80;99.90;;;;;;5067349;28;20479;-65
2021/01/26 04:12:09;;;;;;;30.33;18.38;;;-0.80;99.90;;;;;;5072674;28;20561;-66
2021/01/26 04:14:44;;;;;;;33.80;20.05;;;-0.80;99.90;;;;;;5070792;28;20502;-66
2021/01/26 04:17:37;;;;;;;34.25;19.55;;;-0.80;99.90;;;;;;5069928;28;20399;-66
2021/01/26 04:20:12;;;;;;;35.95;19.58;;;-0.80;99.90;;;;;;5083904;28;20604;-65
2021/01/26 04:22:39;;;;;;;36.28;20.08;;;-0.70;99.90;;;;;;5066903;28;20104;-66
2021/01/26 04:25:26;;;;;;;30.13;18.15;;;-0.70;99.90;;;;;;5073474;28;20048;-66
2021/01/26 04:27:53;;;;;;;31.52;18.05;;;-0.60;99.90;;;;;;5071898;28;20048;-67
2021/01/26 04:30:20;;;;;;;31.75;18.35;;;-0.50;99.90;;;;;;5066628;28;20050;-67
2021/01/26 04:32:57;;;;;;;31.23;18.05;;;-0.50;99.90;;;;;;5071421;28;20059;-66
2021/01/26 04:35:25;;;;;;;34.22;18.75;;;-0.60;99.90;;;;;;5071766;28;20049;-66
2021/01/26 04:37:52;;;;;;;30.98;18.13;;;-0.50;99.90;;;;;;5071023;28;20056;-66
2021/01/26 04:40:19;;;;;;;35.20;18.55;;;-0.50;99.90;;;;;;5071273;28;20540;-66
2021/01/26 04:43:15;;;;;;;33.25;19.27;;;-0.50;99.90;;;;;;5069758;28;20471;-66
2021/01/26 04:45:53;;;;;;;29.45;16.80;;;-0.50;99.90;;;;;;5070348;28;20055;-66
2021/01/26 04:48:38;;;;;;;30.15;17.85;;;-0.40;99.90;;;;;;5070852;28;20501;-66
2021/01/26 04:51:27;;;;;;;32.90;18.00;;;-0.30;99.90;;;;;;5061820;28;20049;-67
2021/01/26 04:54:35;;;;;;;29.75;17.75;;;-0.30;99.90;;;;;;5071759;28;20075;-66
2021/01/26 04:57:30;;;;;;;34.03;18.88;;;-0.30;99.90;;;;;;5059911;28;20058;-66
2021/01/26 05:00:12;;;;;;;27.95;16.48;;;-0.30;99.90;;;;;;5072051;28;20394;-66
2021/01/26 05:03:18;;;;;;;31.70;18.63;;;-0.30;99.90;;;;;;5070249;28;20059;-66
2021/01/26 05:05:51;;;;;;;27.90;16.88;;;-0.20;99.90;;;;;;5052709;28;20066;-67
2021/01/26 05:08:25;;;;;;;35.45;18.85;;;-0.20;99.90;;;;;;5071371;28;20063;-66
2021/01/26 05:11:03;;;;;;;31.73;17.98;;;-0.20;99.90;;;;;;5070165;28;20071;-66
2021/01/26 05:13:48;;;;;;;32.88;18.42;;;-0.20;99.90;;;;;;5071538;28;20451;-66
2021/01/26 05:16:21;;;;;;;36.92;20.38;;;-0.30;99.90;;;;;;5069550;28;20530;-65
2021/01/26 05:18:58;;;;;;;32.13;18.52;;;-0.30;99.90;;;;;;5070556;28;20052;-65
2021/01/26 05:21:59;;;;;;;35.63;20.15;;;-0.20;99.90;;;;;;5070945;28;20126;-65
2021/01/26 05:24:32;;;;;;;35.90;20.42;;;-0.30;99.90;;;;;;5071575;28;20076;-66
2021/01/26 05:27:01;;;;;;;37.03;20.70;;;-0.30;99.90;;;;;;5067958;28;20044;-65
2021/01/26 05:29:29;;;;;;;34.70;20.17;;;-0.30;99.90;;;;;;5071148;28;20119;-66
2021/01/26 05:31:59;;;;;;;43.30;21.55;;;-0.30;99.90;;;;;;5070374;28;20048;-65
2021/01/26 05:34:30;;;;;;;37.03;19.77;;;-0.30;99.90;;;;;;5070077;28;20116;-64
2021/01/26 05:36:57;;;;;;;37.42;19.65;;;-0.30;99.90;;;;;;5069527;28;20044;-66
2021/01/26 05:39:37;;;;;;;36.63;19.38;;;-0.20;99.90;;;;;;5071156;28;20126;-65
2021/01/26 05:42:04;;;;;;;35.33;20.13;;;-0.20;99.90;;;;;;5070751;28;20063;-65
2021/01/26 05:44:33;;;;;;;38.72;20.70;;;-0.30;99.90;;;;;;5070492;28;20423;-65
2021/01/26 05:47:26;;;;;;;42.63;21.42;;;-0.30;99.90;;;;;;5070948;28;20048;-66
2021/01/26 05:49:54;;;;;;;34.22;19.95;;;-0.30;99.90;;;;;;5069814;28;20072;-66
2021/01/26 05:52:22;;;;;;;40.90;21.58;;;-0.30;99.90;;;;;;5070524;28;20085;-66
2021/01/26 05:54:53;;;;;;;37.13;20.05;;;-0.30;99.90;;;;;;5070391;28;20053;-66
2021/01/26 05:57:29;;;;;;;42.03;19.98;;;-0.30;99.90;;;;;;5070498;28;20044;-66
2021/01/26 06:00:35;;;;;;;37.55;19.42;;;-0.30;99.90;;;;;;5070565;28;20098;-66
2021/01/26 06:03:21;;;;;;;38.38;19.88;;;-0.30;99.90;;;;;;5060847;28;20139;-65
2021/01/26 06:06:08;;;;;;;37.50;20.38;;;-0.30;99.90;;;;;;5064001;28;20053;-65
2021/01/26 06:08:56;;;;;;;40.30;20.92;;;-0.20;99.90;;;;;;5066815;28;20052;-65
2021/01/26 06:11:29;;;;;;;38.33;19.83;;;-0.30;99.90;;;;;;5067570;28;20067;-65
2021/01/26 06:14:13;;;;;;;38.65;20.92;;;-0.20;99.90;;;;;;5067484;28;20048;-66
2021/01/26 06:16:40;;;;;;;37.88;20.05;;;-0.30;99.90;;;;;;5063198;28;20049;-67
2021/01/26 06:19:08;;;;;;;35.13;19.60;;;-0.20;99.90;;;;;;5066609;28;20058;-66
2021/01/26 06:21:52;;;;;;;36.42;19.65;;;-0.20;99.90;;;;;;5053923;28;20048;-65
2021/01/26 06:24:25;;;;;;;39.03;19.50;;;-0.20;99.90;;;;;;5067744;28;20556;-65
2021/01/26 06:27:13;;;;;;;37.38;18.98;;;-0.20;99.90;;;;;;5066200;28;20053;-64
2021/01/26 06:30:15;;;;;;;37.17;19.17;;;-0.20;99.90;;;;;;5061259;28;20063;-65
2021/01/26 06:33:03;;;;;;;34.30;17.88;;;-0.20;99.90;;;;;;5065982;28;20040;-67
2021/01/26 06:35:39;;;;;;;35.80;19.55;;;-0.20;99.90;;;;;;5067544;28;20127;-65
2021/01/26 06:38:28;;;;;;;38.42;17.80;;;-0.20;99.90;;;;;;5069391;28;20056;-65
2021/01/26 06:41:14;;;;;;;32.85;17.73;;;-0.20;99.90;;;;;;5069848;28;20074;-66
2021/01/26 06:44:08;;;;;;;36.78;18.55;;;-0.20;99.90;;;;;;5059787;28;20044;-64
2021/01/26 06:46:34;;;;;;;34.95;17.65;;;-0.10;99.90;;;;;;5066148;28;20049;-65
2021/01/26 06:49:07;;;;;;;31.77;17.08;;;-0.10;99.90;;;;;;5069505;28;20055;-65
2021/01/26 06:51:42;;;;;;;32.33;17.75;;;-0.10;99.90;;;;;;5073138;28;20043;-65
2021/01/26 06:54:16;;;;;;;31.55;17.67;;;-0.10;99.90;;;;;;5072448;28;20041;-65
2021/01/26 06:56:51;;;;;;;35.30;18.23;;;0.00;99.90;;;;;;5073000;28;20040;-65
2021/01/26 06:59:45;;;;;;;35.97;18.25;;;-0.10;99.90;;;;;;5073727;28;20060;-67
2021/01/26 07:02:30;;;;;;;36.55;18.10;;;0.00;99.90;;;;;;5068747;28;20076;-68
2021/01/26 07:05:21;;;;;;;31.98;17.35;;;0.00;99.90;;;;;;5072042;28;20052;-67
2021/01/26 07:08:09;;;;;;;34.88;17.80;;;0.00;99.90;;;;;;5072880;28;20060;-67
2021/01/26 07:11:01;;;;;;;27.75;16.02;;;0.10;99.90;;;;;;5072487;28;20045;-67
2021/01/26 07:14:06;;;;;;;30.17;16.52;;;0.00;99.90;;;;;;5073428;28;20559;-66
2021/01/26 07:16:56;;;;;;;31.48;15.63;;;0.10;99.90;;;;;;5066019;28;20059;-66
2021/01/26 07:19:41;;;;;;;28.75;14.43;;;0.10;99.90;;;;;;5073190;28;20080;-66
2021/01/26 07:22:26;;;;;;;29.75;14.70;;;0.20;99.90;;;;;;5068261;28;20479;-67
2021/01/26 07:25:20;;;;;;;28.70;16.10;;;0.20;99.90;;;;;;5073083;28;20485;-68
2021/01/26 07:28:28;;;;;;;27.80;15.30;;;0.20;99.90;;;;;;5064790;28;20063;-67
2021/01/26 07:31:31;;;;;;;26.83;15.07;;;0.30;99.90;;;;;;5058705;28;20868;-67
2021/01/26 07:34:06;;;;;;;26.48;14.60;;;0.30;99.90;;;;;;5073177;28;20048;-66
2021/01/26 07:36:39;;;;;;;28.08;13.57;;;0.30;99.90;;;;;;5072135;28;20487;-67
2021/01/26 07:39:32;;;;;;;25.23;13.27;;;0.40;99.90;;;;;;5073795;28;20048;-67
2021/01/26 07:42:11;;;;;;;21.88;12.82;;;0.60;99.90;;;;;;5070791;28;20055;-67
2021/01/26 07:44:43;;;;;;;23.85;12.43;;;0.60;99.90;;;;;;5073024;28;20131;-64
2021/01/26 07:47:15;;;;;;;23.70;12.45;;;0.70;99.90;;;;;;5071205;28;20051;-66
2021/01/26 07:50:06;;;;;;;21.23;11.98;;;0.70;99.90;;;;;;5067282;28;20488;-66
2021/01/26 07:52:36;;;;;;;23.77;12.60;;;0.60;99.90;;;;;;5057767;28;20483;-65
2021/01/26 07:55:13;;;;;;;21.55;12.40;;;0.60;99.90;;;;;;5070768;28;20463;-65
2021/01/26 07:57:51;;;;;;;25.00;13.13;;;0.60;99.90;;;;;;5068512;28;20049;-65
2021/01/26 08:00:22;;;;;;;25.90;13.60;;;0.60;99.90;;;;;;5070887;28;20040;-65
2021/01/26 08:02:57;;;;;;;20.88;11.93;;;0.60;99.90;;;;;;5063824;28;20048;-66
2021/01/26 08:05:44;;;;;;;27.67;13.52;;;0.60;99.90;;;;;;5066277;28;20045;-65
2021/01/26 08:08:37;;;;;;;21.58;12.63;;;0.70;99.90;;;;;;5069351;28;20059;-65
2021/01/26 08:11:10;;;;;;;20.48;11.77;;;0.70;99.90;;;;;;5070432;28;20053;-66
2021/01/26 08:13:42;;;;;;;23.10;13.07;;;0.70;99.90;;;;;;5060378;28;20057;-66
2021/01/26 08:16:37;;;;;;;20.60;12.40;;;0.70;99.90;;;;;;5069907;28;20047;-66
2021/01/26 08:19:25;;;;;;;23.02;12.70;;;0.70;99.90;;;;;;5060313;28;20055;-65
2021/01/26 08:21:53;;;;;;;22.48;12.57;;;0.70;99.90;;;;;;5066842;28;20384;-67
2021/01/26 08:24:25;;;;;;;27.27;14.27;;;0.70;99.90;;;;;;5067046;28;20044;-66
2021/01/26 08:26:55;;;;;;;24.40;13.57;;;0.70;99.90;;;;;;5067212;28;20438;-67
2021/01/26 08:29:39;;;;;;;26.17;13.23;;;0.70;99.90;;;;;;5067821;28;20051;-66
2021/01/26 08:32:24;;;;;;;24.13;14.60;;;0.70;99.90;;;;;;5069753;28;20057;-66
2021/01/26 08:35:03;;;;;;;26.70;14.07;;;0.70;99.90;;;;;;5061958;28;20075;-67
2021/01/26 08:37:42;;;;;;;27.27;14.88;;;0.80;99.90;;;;;;5070375;28;20045;-66
2021/01/26 08:40:12;;;;;;;27.30;13.95;;;0.90;99.90;;;;;;5071817;28;20482;-67
2021/01/26 08:42:42;;;;;;;24.90;12.90;;;0.90;99.90;;;;;;5059169;28;20376;-66
2021/01/26 08:45:08;;;;;;;24.40;13.77;;;1.00;99.90;;;;;;5071023;28;20499;-67
2021/01/26 08:48:06;;;;;;;24.65;14.20;;;1.10;99.90;;;;;;5061001;28;20444;-67
2021/01/26 08:50:43;;;;;;;20.15;12.40;;;1.00;99.90;;;;;;5061636;28;20047;-66
2021/01/26 08:53:21;;;;;;;24.17;13.13;;;1.00;99.90;;;;;;5062892;28;20037;-66
2021/01/26 08:55:54;;;;;;;21.75;12.38;;;1.00;99.90;;;;;;5070594;28;20055;-66
2021/01/26 08:58:43;;;;;;;25.70;12.20;;;1.00;99.90;;;;;;5070280;28;20047;-66
2021/01/26 09:01:23;;;;;;;20.33;11.45;;;1.00;99.90;;;;;;5070071;28;20075;-65
2021/01/26 09:03:51;;;;;;;27.83;13.80;;;1.00;99.90;;;;;;5070279;28;20509;-66
2021/01/26 09:06:27;;;;;;;24.98;13.68;;;0.80;99.90;;;;;;5068319;28;20395;-66
2021/01/26 09:08:56;;;;;;;23.45;13.70;;;0.80;99.90;;;;;;5070578;28;20063;-66
2021/01/26 09:11:45;;;;;;;20.80;12.73;;;0.90;99.90;;;;;;5068092;28;20040;-66
2021/01/26 09:14:27;;;;;;;21.33;12.68;;;0.90;99.90;;;;;;5071307;28;20055;-68
2021/01/26 09:17:00;;;;;;;22.00;11.77;;;1.00;99.90;;;;;;5067179;28;20123;-67
2021/01/26 09:19:43;;;;;;;21.27;12.40;;;1.00;99.90;;;;;;5070924;28;20083;-67
2021/01/26 09:22:21;;;;;;;22.83;12.63;;;1.20;99.90;;;;;;5068454;28;20415;-67
2021/01/26 09:24:53;;;;;;;21.27;11.32;;;1.20;99.90;;;;;;5069440;28;20037;-67
2021/01/26 09:27:29;;;;;;;21.02;10.95;;;1.20;99.90;;;;;;5069353;28;20051;-68
2021/01/26 09:30:22;;;;;;;20.48;10.70;;;1.40;99.90;;;;;;5063612;28;20052;-67
2021/01/26 09:33:17;;;;;;;16.83;10.38;;;1.40;99.90;;;;;;5068902;28;20040;-67
2021/01/26 09:35:46;;;;;;;18.30;8.80;;;1.50;99.90;;;;;;5056697;28;20146;-67
2021/01/26 09:38:20;;;;;;;18.48;9.23;;;1.50;99.90;;;;;;5065942;28;20491;-66
2021/01/26 09:40:58;;;;;;;18.70;8.50;;;1.50;99.90;;;;;;5069294;28;20060;-66
2021/01/26 09:43:38;;;;;;;12.93;7.70;;;1.50;99.90;;;;;;5069191;28;20617;-66
2021/01/26 09:46:11;;;;;;;13.15;8.05;;;1.50;99.90;;;;;;5070403;28;20052;-67
2021/01/26 09:48:44;;;;;;;15.43;7.85;;;1.60;99.90;;;;;;5067968;28;20045;-66
2021/01/26 09:51:14;;;;;;;14.05;7.25;;;1.70;99.90;;;;;;5068768;28;20062;-68
2021/01/26 09:53:44;;;;;;;15.25;7.78;;;1.80;99.90;;;;;;5070311;28;20052;-67
2021/01/26 09:56:12;;;;;;;18.17;7.97;;;1.90;99.90;;;;;;5070416;28;20455;-68
2021/01/26 09:58:39;;;;;;;12.02;7.15;;;1.90;99.90;;;;;;5063193;28;20051;-67
2021/01/26 10:01:05;;;;;;;15.63;7.13;;;1.90;99.90;;;;;;5068613;28;20499;-68
2021/01/26 10:03:32;;;;;;;15.60;6.88;;;2.00;99.90;;;;;;5069153;28;20060;-67
2021/01/26 10:06:00;;;;;;;16.70;6.90;;;2.10;99.90;;;;;;5067174;28;20045;-67
2021/01/26 10:08:31;;;;;;;9.40;5.97;;;2.00;99.90;;;;;;5068896;28;20040;-66
2021/01/26 10:11:14;;;;;;;11.45;6.25;;;2.10;99.90;;;;;;5069685;28;20080;-67
2021/01/26 10:13:41;;;;;;;12.73;6.45;;;2.10;99.90;;;;;;5085134;28;20047;-67
2021/01/26 10:16:38;;;;;;;11.68;6.43;;;2.10;99.90;;;;;;5070071;28;20044;-67
2021/01/26 10:19:13;;;;;;;12.18;6.57;;;2.10;99.90;;;;;;5069264;28;20169;-67
2021/01/26 10:21:40;;;;;;;13.35;6.63;;;2.00;99.90;;;;;;5067543;28;20041;-66
2021/01/26 10:24:13;;;;;;;16.05;7.15;;;2.00;99.90;;;;;;5071746;28;20395;-67
2021/01/26 10:26:42;;;;;;;13.23;6.30;;;2.00;99.90;;;;;;5067431;28;20422;-66
2021/01/26 10:29:11;;;;;;;12.27;7.07;;;2.10;99.90;;;;;;5068943;28;20045;-67
2021/01/26 10:31:46;;;;;;;13.88;7.00;;;2.10;99.90;;;;;;5072780;28;20045;-68
2021/01/26 10:34:31;;;;;;;14.63;7.43;;;2.00;99.90;;;;;;5059708;28;20483;-67
2021/01/26 10:37:23;;;;;;;11.65;6.80;;;1.80;99.90;;;;;;5072587;28;20151;-67
2021/01/26 10:40:26;;;;;;;15.13;7.40;;;1.80;99.90;;;;;;5062852;28;20411;-68
2021/01/26 10:43:10;;;;;;;16.02;7.47;;;1.80;99.90;;;;;;5070583;28;20052;-68
2021/01/26 10:45:45;;;;;;;12.20;6.85;;;1.70;99.90;;;;;;5071985;28;20062;-66
2021/01/26 10:48:42;;;;;;;10.57;6.63;;;1.70;99.90;;;;;;5072543;28;20052;-65
2021/01/26 10:51:26;;;;;;;14.85;7.57;;;1.90;99.90;;;;;;5071580;28;20052;-66
2021/01/26 10:53:52;;;;;;;19.00;9.75;;;1.80;99.90;;;;;;5074467;28;20067;-66
2021/01/26 10:56:19;;;;;;;13.90;7.78;;;1.70;99.90;;;;;;5072268;28;20151;-67
2021/01/26 10:58:47;;;;;;;15.35;8.40;;;1.60;99.90;;;;;;5072365;28;20044;-67
2021/01/26 11:01:20;;;;;;;19.17;8.75;;;1.50;99.90;;;;;;5070662;28;20049;-66
2021/01/26 11:03:48;;;;;;;12.18;6.50;;;1.50;99.90;;;;;;5072554;28;20087;-67
2021/01/26 11:06:17;;;;;;;13.02;7.85;;;1.50;99.90;;;;;;5070385;28;20473;-67
2021/01/26 11:08:47;;;;;;;14.27;7.80;;;1.60;99.90;;;;;;5071608;28;20048;-68
2021/01/26 11:11:16;;;;;;;13.93;7.30;;;1.60;99.90;;;;;;5070477;28;20049;-67
2021/01/26 11:13:44;;;;;;;11.75;7.10;;;1.60;99.90;;;;;;5071982;28;20060;-67
2021/01/26 11:16:10;;;;;;;13.30;7.82;;;1.60;99.90;;;;;;5072192;28;20045;-66
2021/01/26 11:18:37;;;;;;;11.73;6.65;;;1.80;99.90;;;;;;5071695;28;20479;-66
2021/01/26 11:21:04;;;;;;;11.05;6.55;;;1.80;99.90;;;;;;5071265;28;20064;-67
2021/01/26 11:23:30;;;;;;;11.10;7.03;;;1.80;99.90;;;;;;5072200;28;20098;-67
2021/01/26 11:25:59;;;;;;;12.02;7.00;;;2.00;99.90;;;;;;5073342;28;20079;-67
2021/01/26 11:28:26;;;;;;;9.25;5.95;;;2.00;99.90;;;;;;5081570;28;20048;-66
2021/01/26 11:30:53;;;;;;;14.20;6.68;;;2.10;99.90;;;;;;5072464;28;20041;-67
2021/01/26 11:33:19;;;;;;;11.35;6.25;;;2.10;99.90;;;;;;5071775;28;20403;-68
2021/01/26 11:35:46;;;;;;;11.48;5.78;;;2.00;99.90;;;;;;5071616;28;20159;-67
2021/01/26 11:38:13;;;;;;;12.02;5.75;;;2.00;99.90;;;;;;5072086;28;20083;-65
2021/01/26 11:40:40;;;;;;;9.68;6.43;;;2.00;99.90;;;;;;5068856;28;20046;-66
2021/01/26 11:43:06;;;;;;;11.10;5.93;;;2.00;99.90;;;;;;5071694;28;20422;-67
2021/01/26 11:45:36;;;;;;;10.13;6.63;;;2.00;99.90;;;;;;5072539;28;20131;-68
2021/01/26 11:48:05;;;;;;;13.00;6.60;;;2.00;99.90;;;;;;5070992;28;20059;-67
2021/01/26 11:50:33;;;;;;;10.43;6.53;;;2.10;99.90;;;;;;5070845;28;20103;-66
2021/01/26 11:53:00;;;;;;;12.32;7.10;;;2.10;99.90;;;;;;5067124;28;20055;-68
2021/01/26 11:55:30;;;;;;;15.70;6.68;;;2.00;99.90;;;;;;5070325;28;20048;-66
2021/01/26 11:57:57;;;;;;;15.57;6.95;;;1.80;99.90;;;;;;5069707;28;20044;-65
2021/01/26 12:00:27;;;;;;;13.05;6.18;;;1.70;99.90;;;;;;5070081;28;20414;-67
2021/01/26 12:02:55;;;;;;;9.52;5.47;;;1.70;99.90;;;;;;5071192;28;20048;-68
2021/01/26 12:05:25;;;;;;;14.43;6.15;;;1.80;99.90;;;;;;5071593;28;20051;-66
2021/01/26 12:07:52;;;;;;;13.90;6.30;;;1.80;99.90;;;;;;5063707;28;20052;-66
2021/01/26 12:10:19;;;;;;;14.98;6.35;;;1.80;99.90;;;;;;5062446;28;20123;-66
2021/01/26 12:12:48;;;;;;;9.13;6.18;;;1.90;99.90;;;;;;5070605;28;20067;-67
2021/01/26 12:15:26;;;;;;;15.88;7.05;;;1.80;99.90;;;;;;5070742;28;20040;-67
2021/01/26 12:17:53;;;;;;;12.18;6.20;;;1.80;99.90;;;;;;5086829;28;20106;-67
2021/01/26 12:20:21;;;;;;;11.10;5.70;;;1.80;99.90;;;;;;5072275;28;20066;-67
2021/01/26 12:22:48;;;;;;;13.25;6.80;;;1.70;99.90;;;;;;5068572;28;20474;-68
2021/01/26 12:25:16;;;;;;;9.90;6.53;;;1.60;99.90;;;;;;5072309;28;20045;-68
2021/01/26 12:27:43;;;;;;;9.68;6.47;;;1.70;99.90;;;;;;5070532;28;20078;-68
2021/01/26 12:30:11;;;;;;;11.65;6.30;;;1.70;99.90;;;;;;5070510;28;20100;-67
2021/01/26 12:32:37;;;;;;;9.15;5.82;;;1.80;99.90;;;;;;5070690;28;20384;-68
2021/01/26 12:35:12;;;;;;;12.93;5.93;;;1.80;99.90;;;;;;5071047;28;20414;-68
2021/01/26 12:37:38;;;;;;;11.65;6.22;;;1.90;99.90;;;;;;5085708;28;20410;-67
2021/01/26 12:40:06;;;;;;;11.35;5.47;;;1.90;99.90;;;;;;5061889;28;20510;-68
2021/01/26 12:42:33;;;;;;;12.70;6.05;;;2.00;99.90;;;;;;5068939;28;20059;-68
2021/01/26 12:44:59;;;;;;;15.20;6.32;;;1.90;99.90;;;;;;5064216;28;20063;-69
2021/01/26 12:47:26;;;;;;;10.60;6.05;;;1.80;99.90;;;;;;5062730;28;20103;-67
2021/01/26 12:49:53;;;;;;;13.85;5.78;;;1.60;99.90;;;;;;5068346;28;20045;-67
2021/01/26 12:52:19;;;;;;;11.20;5.57;;;1.60;99.90;;;;;;5070550;28;20044;-67
2021/01/26 12:54:46;;;;;;;11.77;5.30;;;1.70;99.90;;;;;;5068811;28;20414;-68
2021/01/26 12:57:12;;;;;;;12.52;6.35;;;1.80;99.90;;;;;;5070913;28;20060;-68
2021/01/26 12:59:39;;;;;;;11.35;6.53;;;1.80;99.90;;;;;;5070950;28;20048;-69
2021/01/26 13:02:05;;;;;;;10.43;5.43;;;1.90;99.90;;;;;;5069744;28;20517;-68
2021/01/26 13:04:32;;;;;;;13.27;6.13;;;1.90;99.90;;;;;;5071699;28;20065;-65
2021/01/26 13:06:58;;;;;;;12.75;6.07;;;1.90;99.90;;;;;;5069719;28;20176;-67
2021/01/26 13:09:25;;;;;;;9.38;5.72;;;1.80;99.90;;;;;;5071383;28;20048;-67
2021/01/26 13:11:51;;;;;;;12.52;6.38;;;1.80;99.90;;;;;;5069004;28;20059;-69
2021/01/26 13:14:18;;;;;;;10.38;6.38;;;1.90;99.90;;;;;;5063860;28;20048;-67
2021/01/26 13:16:44;;;;;;;17.70;5.63;;;1.90;99.90;;;;;;5068441;28;20060;-69
2021/01/26 13:19:11;;;;;;;9.90;5.65;;;1.80;99.90;;;;;;5070895;28;20499;-70